Terminal Aerodrome Forecast
Issued by NWS

Home | Current Version | Previous Version | Text Only | Print | Product List | Glossary On
Versions: 1 2 3 4 5 6 7 8 9 10 11 12
000
FTUS44 KTSA 022340
TAFBVO
TAF
KBVO 022340Z 0300/0324 02010KT P6SM VCTS SCT060CB BKN120
     FM030200 VRB04KT P6SM VCSH BKN080
     FM031000 VRB03KT P6SM SCT015 BKN025 BKN080
     FM031400 02006KT P6SM BKN040 PROB30 0318/0324 -TSRA BKN040CB=

USA.gov is the U.S. government's official web portal to all federal, state and local government web resources and services.